BAF604 EBMB-LICZ
Flight info
| Callsign | BAF604 |
|---|---|
| Flight time | 2h 20m |
| Altitude | 31000 |
| Route | ROUSY DCT DEVDI DCT ODINA DCT OGLAK DCT OST DCT TAGEL DCT UXUTA |
| Aircraft | A400/H-SDE2E3FGHIJ4J5M1RWXY/LB1D1 |
Departure
| Time | 2026-04-19 11:46 |
|---|---|
| Airport | Melsbroek Air Base (EBMB) |
Arrival
| Time | 2026-04-19 14:06 |
|---|---|
| Airport | Sigonella Navy Air Base (LICZ) |
| Time | Latitude | Longitude | Altitude | Speed | Heading |
|---|---|---|---|---|---|
| 2026-04-19 11:36 | 50.91395 | 4.49402 | 129 ft | 0 kts | 148° |
| 2026-04-19 11:41 | 50.91384 | 4.49413 | 126 ft | 5 kts | 148° |
| 2026-04-19 11:41 | 50.91366 | 4.49480 | 128 ft | 9 kts | 81° |
| 2026-04-19 11:41 | 50.91393 | 4.49590 | 125 ft | 12 kts | 65° |
| 2026-04-19 11:42 | 50.91433 | 4.49730 | 124 ft | 15 kts | 65° |
| 2026-04-19 11:42 | 50.91464 | 4.49887 | 126 ft | 14 kts | 103° |
| 2026-04-19 11:42 | 50.91401 | 4.49968 | 125 ft | 0 kts | 149° |
| 2026-04-19 11:44 | 50.91383 | 4.49984 | 126 ft | 9 kts | 150° |
| 2026-04-19 11:44 | 50.91302 | 4.50046 | 127 ft | 16 kts | 156° |
| 2026-04-19 11:45 | 50.91195 | 4.50060 | 124 ft | 15 kts | 228° |
| 2026-04-19 11:45 | 50.91139 | 4.49885 | 126 ft | 35 kts | 246° |
| 2026-04-19 11:45 | 50.90905 | 4.49086 | 128 ft | 124 kts | 244° |
| 2026-04-19 11:45 | 50.90488 | 4.47541 | 323 ft | 171 kts | 249° |
| 2026-04-19 11:46 | 50.89944 | 4.45729 | 873 ft | 192 kts | 247° |
| 2026-04-19 11:46 | 50.89314 | 4.43708 | 1556 ft | 215 kts | 246° |
| 2026-04-19 11:46 | 50.88545 | 4.41617 | 2439 ft | 226 kts | 234° |
| 2026-04-19 11:46 | 50.87276 | 4.40068 | 3402 ft | 237 kts | 204° |
| 2026-04-19 11:47 | 50.85641 | 4.39834 | 4492 ft | 242 kts | 165° |
| 2026-04-19 11:47 | 50.84292 | 4.41315 | 5588 ft | 244 kts | 126° |
| 2026-04-19 11:47 | 50.83562 | 4.43712 | 6743 ft | 243 kts | 106° |
| 2026-04-19 11:47 | 50.83138 | 4.46318 | 7744 ft | 248 kts | 99° |
| 2026-04-19 11:48 | 50.82808 | 4.49025 | 8772 ft | 254 kts | 102° |
| 2026-04-19 11:48 | 50.82101 | 4.51617 | 9786 ft | 262 kts | 124° |
| 2026-04-19 11:48 | 50.80924 | 4.53874 | 10753 ft | 268 kts | 131° |
| 2026-04-19 11:48 | 50.79606 | 4.56128 | 11276 ft | 292 kts | 133° |
| 2026-04-19 11:49 | 50.78169 | 4.58572 | 11736 ft | 313 kts | 132° |
| 2026-04-19 11:49 | 50.76694 | 4.61135 | 12352 ft | 323 kts | 131° |
| 2026-04-19 11:49 | 50.75178 | 4.63812 | 13038 ft | 331 kts | 131° |
| 2026-04-19 11:49 | 50.73632 | 4.66564 | 13737 ft | 338 kts | 131° |
| 2026-04-19 11:50 | 50.72064 | 4.69369 | 14410 ft | 344 kts | 131° |
| 2026-04-19 11:50 | 50.70477 | 4.72236 | 15079 ft | 349 kts | 129° |
| 2026-04-19 11:50 | 50.69196 | 4.75484 | 15767 ft | 352 kts | 111° |
| 2026-04-19 11:50 | 50.68390 | 4.79146 | 16448 ft | 355 kts | 104° |
| 2026-04-19 11:51 | 50.67707 | 4.82922 | 17135 ft | 360 kts | 103° |
| 2026-04-19 11:51 | 50.67033 | 4.86700 | 17795 ft | 365 kts | 105° |
| 2026-04-19 11:51 | 50.66086 | 4.90442 | 18478 ft | 372 kts | 117° |
| 2026-04-19 11:51 | 50.64614 | 4.93810 | 19085 ft | 376 kts | 132° |
| 2026-04-19 11:52 | 50.62803 | 4.96821 | 19692 ft | 379 kts | 136° |
| 2026-04-19 11:52 | 50.60908 | 4.99750 | 20312 ft | 383 kts | 137° |
| 2026-04-19 11:52 | 50.58985 | 5.02695 | 20937 ft | 388 kts | 137° |
| 2026-04-19 11:52 | 50.57040 | 5.05678 | 21567 ft | 392 kts | 137° |
| 2026-04-19 11:53 | 50.55082 | 5.08689 | 22183 ft | 396 kts | 137° |
| 2026-04-19 11:53 | 50.53098 | 5.11742 | 22798 ft | 400 kts | 138° |
| 2026-04-19 11:53 | 50.51095 | 5.14825 | 23406 ft | 405 kts | 138° |
| 2026-04-19 11:53 | 50.49072 | 5.17938 | 23976 ft | 409 kts | 138° |
| 2026-04-19 11:54 | 50.47032 | 5.21075 | 24500 ft | 412 kts | 138° |
| 2026-04-19 11:54 | 50.44973 | 5.24238 | 24973 ft | 415 kts | 138° |
| 2026-04-19 11:54 | 50.42898 | 5.27422 | 25461 ft | 419 kts | 138° |
| 2026-04-19 11:54 | 50.40830 | 5.30589 | 25920 ft | 422 kts | 138° |
| 2026-04-19 11:55 | 50.38725 | 5.33811 | 26364 ft | 425 kts | 139° |
| 2026-04-19 11:55 | 50.36601 | 5.37056 | 26797 ft | 428 kts | 139° |
| 2026-04-19 11:55 | 50.34463 | 5.40319 | 27203 ft | 431 kts | 139° |
| 2026-04-19 11:55 | 50.32308 | 5.43603 | 27612 ft | 433 kts | 139° |
| 2026-04-19 11:56 | 50.30138 | 5.46908 | 28000 ft | 436 kts | 139° |
| 2026-04-19 11:56 | 50.27959 | 5.50220 | 28368 ft | 439 kts | 139° |
| 2026-04-19 11:56 | 50.25765 | 5.53550 | 28721 ft | 441 kts | 139° |
| 2026-04-19 11:56 | 50.23552 | 5.56904 | 29062 ft | 444 kts | 139° |
| 2026-04-19 11:57 | 50.21325 | 5.60276 | 29378 ft | 446 kts | 139° |
| 2026-04-19 11:57 | 50.19086 | 5.63661 | 29688 ft | 449 kts | 139° |
| 2026-04-19 11:57 | 50.16867 | 5.67011 | 29978 ft | 451 kts | 139° |
| 2026-04-19 11:57 | 50.14601 | 5.70429 | 30282 ft | 452 kts | 139° |
| 2026-04-19 11:58 | 50.12341 | 5.73832 | 30626 ft | 452 kts | 139° |
| 2026-04-19 11:58 | 50.10059 | 5.77210 | 30965 ft | 450 kts | 142° |
| 2026-04-19 11:58 | 50.07591 | 5.80112 | 31183 ft | 443 kts | 153° |
| 2026-04-19 11:58 | 50.04837 | 5.82215 | 31211 ft | 436 kts | 165° |
| 2026-04-19 11:59 | 50.01981 | 5.83790 | 31213 ft | 434 kts | 168° |
| 2026-04-19 11:59 | 49.96231 | 5.86717 | 31200 ft | 434 kts | 168° |
| 2026-04-19 12:00 | 49.90513 | 5.89634 | 31204 ft | 434 kts | 168° |
| 2026-04-19 12:00 | 49.84768 | 5.92580 | 31204 ft | 434 kts | 168° |
| 2026-04-19 12:01 | 49.79025 | 5.95524 | 31207 ft | 434 kts | 168° |
| 2026-04-19 12:01 | 49.73294 | 5.98456 | 31225 ft | 434 kts | 168° |
| 2026-04-19 12:02 | 49.67565 | 6.01381 | 31229 ft | 434 kts | 168° |
| 2026-04-19 12:02 | 49.61830 | 6.04302 | 31234 ft | 434 kts | 168° |
| 2026-04-19 12:03 | 49.56133 | 6.07197 | 31235 ft | 434 kts | 168° |
| 2026-04-19 12:03 | 49.50399 | 6.10103 | 31227 ft | 433 kts | 168° |
| 2026-04-19 12:04 | 49.44813 | 6.13802 | 31226 ft | 441 kts | 158° |
| 2026-04-19 12:04 | 49.39419 | 6.18353 | 31221 ft | 442 kts | 155° |
| 2026-04-19 12:05 | 49.34100 | 6.23006 | 31222 ft | 442 kts | 155° |
| 2026-04-19 12:05 | 49.28747 | 6.27633 | 31214 ft | 442 kts | 156° |
| 2026-04-19 12:06 | 49.23367 | 6.32219 | 31219 ft | 442 kts | 156° |
| 2026-04-19 12:06 | 49.17989 | 6.36773 | 31228 ft | 442 kts | 156° |
| 2026-04-19 12:07 | 49.12603 | 6.41320 | 31233 ft | 442 kts | 156° |
| 2026-04-19 12:07 | 49.07243 | 6.45837 | 31233 ft | 442 kts | 156° |
| 2026-04-19 12:08 | 49.01855 | 6.50368 | 31226 ft | 442 kts | 156° |
| 2026-04-19 12:08 | 48.96464 | 6.54891 | 31226 ft | 443 kts | 156° |
| 2026-04-19 12:09 | 48.91963 | 6.58658 | 31223 ft | 443 kts | 156° |
| 2026-04-19 12:09 | 48.86553 | 6.63176 | 31218 ft | 443 kts | 156° |
| 2026-04-19 12:10 | 48.81146 | 6.67679 | 31206 ft | 442 kts | 156° |
| 2026-04-19 12:10 | 48.75789 | 6.72131 | 31205 ft | 442 kts | 156° |
| 2026-04-19 12:11 | 48.70377 | 6.76616 | 31204 ft | 442 kts | 156° |
| 2026-04-19 12:11 | 48.64981 | 6.81078 | 31203 ft | 442 kts | 156° |
| 2026-04-19 12:12 | 48.59590 | 6.85525 | 31201 ft | 441 kts | 156° |
| 2026-04-19 12:12 | 48.54195 | 6.89964 | 31199 ft | 441 kts | 156° |
| 2026-04-19 12:13 | 48.48814 | 6.94380 | 31195 ft | 440 kts | 156° |
| 2026-04-19 12:13 | 48.43465 | 6.98760 | 31195 ft | 440 kts | 156° |
| 2026-04-19 12:14 | 48.38147 | 7.03104 | 31187 ft | 440 kts | 156° |
| 2026-04-19 12:14 | 48.32691 | 7.07549 | 31176 ft | 439 kts | 156° |
| 2026-04-19 12:15 | 48.27309 | 7.11923 | 31171 ft | 439 kts | 156° |
| 2026-04-19 12:15 | 48.21943 | 7.16274 | 31160 ft | 439 kts | 156° |
| 2026-04-19 12:16 | 48.16591 | 7.20604 | 31159 ft | 438 kts | 156° |
| 2026-04-19 12:16 | 48.11199 | 7.24955 | 31156 ft | 438 kts | 156° |
| 2026-04-19 12:17 | 48.05829 | 7.29278 | 31170 ft | 438 kts | 156° |
| 2026-04-19 12:17 | 48.00459 | 7.33591 | 31160 ft | 438 kts | 156° |
| 2026-04-19 12:18 | 47.95116 | 7.37871 | 31158 ft | 438 kts | 156° |
| 2026-04-19 12:18 | 47.89733 | 7.42175 | 31147 ft | 438 kts | 156° |
| 2026-04-19 12:19 | 47.84351 | 7.46467 | 31150 ft | 438 kts | 156° |
| 2026-04-19 12:19 | 47.79009 | 7.50716 | 31155 ft | 438 kts | 156° |
| 2026-04-19 12:20 | 47.73623 | 7.54970 | 31153 ft | 437 kts | 157° |
| 2026-04-19 12:20 | 47.68146 | 7.58944 | 31154 ft | 436 kts | 159° |
| 2026-04-19 12:21 | 47.62651 | 7.62762 | 31151 ft | 436 kts | 159° |
| 2026-04-19 12:21 | 47.57194 | 7.66555 | 31156 ft | 435 kts | 159° |
| 2026-04-19 12:22 | 47.51709 | 7.70388 | 31151 ft | 435 kts | 159° |
| 2026-04-19 12:22 | 47.49241 | 7.72115 | 31148 ft | 435 kts | 159° |
| 2026-04-19 12:23 | 47.43774 | 7.75937 | 31143 ft | 434 kts | 159° |
| 2026-04-19 12:23 | 47.38322 | 7.79741 | 31133 ft | 433 kts | 158° |
| 2026-04-19 12:24 | 47.32882 | 7.83527 | 31125 ft | 431 kts | 158° |
| 2026-04-19 12:24 | 47.27478 | 7.87278 | 31124 ft | 431 kts | 158° |
| 2026-04-19 12:25 | 47.22053 | 7.91035 | 31118 ft | 430 kts | 158° |
| 2026-04-19 12:25 | 47.16627 | 7.94784 | 31115 ft | 430 kts | 159° |
| 2026-04-19 12:26 | 47.11239 | 7.98498 | 31114 ft | 430 kts | 158° |
| 2026-04-19 12:26 | 47.05825 | 8.02223 | 31125 ft | 429 kts | 158° |
| 2026-04-19 12:27 | 47.00402 | 8.05945 | 31108 ft | 429 kts | 158° |
| 2026-04-19 12:27 | 46.95024 | 8.09628 | 31103 ft | 428 kts | 158° |
| 2026-04-19 12:28 | 46.86906 | 8.15171 | 31104 ft | 428 kts | 158° |
| 2026-04-19 12:28 | 46.81502 | 8.18851 | 31107 ft | 428 kts | 158° |
| 2026-04-19 12:29 | 46.76149 | 8.22489 | 31106 ft | 428 kts | 158° |
| 2026-04-19 12:29 | 46.70749 | 8.26150 | 31099 ft | 427 kts | 158° |
| 2026-04-19 12:30 | 46.65356 | 8.29799 | 31108 ft | 427 kts | 158° |
| 2026-04-19 12:30 | 46.59952 | 8.33446 | 31109 ft | 427 kts | 158° |
| 2026-04-19 12:31 | 46.54558 | 8.37079 | 31107 ft | 427 kts | 158° |
| 2026-04-19 12:31 | 46.49169 | 8.40700 | 31098 ft | 426 kts | 158° |
| 2026-04-19 12:32 | 46.43818 | 8.44288 | 31086 ft | 425 kts | 158° |
| 2026-04-19 12:32 | 46.38431 | 8.47892 | 31075 ft | 425 kts | 158° |
| 2026-04-19 12:33 | 46.33067 | 8.51475 | 31056 ft | 424 kts | 158° |
| 2026-04-19 12:33 | 46.27735 | 8.55026 | 31076 ft | 424 kts | 158° |
| 2026-04-19 12:34 | 46.22363 | 8.58596 | 31061 ft | 424 kts | 158° |
| 2026-04-19 12:34 | 46.17026 | 8.62136 | 31057 ft | 424 kts | 158° |
| 2026-04-19 12:35 | 46.11664 | 8.65702 | 31034 ft | 425 kts | 156° |
| 2026-04-19 12:35 | 46.06504 | 8.69915 | 31049 ft | 424 kts | 152° |
| 2026-04-19 12:36 | 46.01451 | 8.74285 | 31047 ft | 426 kts | 152° |
| 2026-04-19 12:36 | 45.96366 | 8.78727 | 31045 ft | 427 kts | 152° |
| 2026-04-19 12:37 | 45.91285 | 8.83151 | 31046 ft | 427 kts | 152° |
| 2026-04-19 12:37 | 45.86217 | 8.87542 | 31046 ft | 427 kts | 152° |
| 2026-04-19 12:38 | 45.81128 | 8.91935 | 31046 ft | 427 kts | 152° |
| 2026-04-19 12:38 | 45.76014 | 8.96340 | 31043 ft | 427 kts | 152° |
| 2026-04-19 12:39 | 45.70943 | 9.00699 | 31045 ft | 428 kts | 152° |
| 2026-04-19 12:39 | 45.65846 | 9.05071 | 31041 ft | 428 kts | 152° |
| 2026-04-19 12:40 | 45.60717 | 9.09462 | 31028 ft | 428 kts | 152° |
| 2026-04-19 12:40 | 45.55635 | 9.13803 | 31023 ft | 428 kts | 153° |
| 2026-04-19 12:41 | 45.50511 | 9.18170 | 31020 ft | 428 kts | 153° |
| 2026-04-19 12:41 | 45.45387 | 9.22528 | 31017 ft | 428 kts | 153° |
| 2026-04-19 12:42 | 45.40329 | 9.26821 | 31019 ft | 429 kts | 153° |
| 2026-04-19 12:42 | 45.35123 | 9.31229 | 31019 ft | 429 kts | 154° |
| 2026-04-19 12:43 | 45.30022 | 9.35540 | 31022 ft | 429 kts | 154° |
| 2026-04-19 12:43 | 45.24869 | 9.39886 | 31022 ft | 430 kts | 154° |
| 2026-04-19 12:44 | 45.19720 | 9.44218 | 31021 ft | 430 kts | 154° |
| 2026-04-19 12:44 | 45.14584 | 9.48531 | 31027 ft | 430 kts | 154° |
| 2026-04-19 12:45 | 45.09417 | 9.52861 | 31023 ft | 431 kts | 155° |
| 2026-04-19 12:45 | 45.04283 | 9.57153 | 31020 ft | 431 kts | 155° |
| 2026-04-19 12:46 | 44.99097 | 9.61480 | 31021 ft | 432 kts | 155° |
| 2026-04-19 12:46 | 44.93955 | 9.65762 | 31018 ft | 432 kts | 155° |
| 2026-04-19 12:47 | 44.88772 | 9.70069 | 31024 ft | 432 kts | 155° |
| 2026-04-19 12:47 | 44.83591 | 9.74364 | 31018 ft | 431 kts | 155° |
| 2026-04-19 12:48 | 44.78480 | 9.78592 | 31025 ft | 432 kts | 155° |
| 2026-04-19 12:48 | 44.73238 | 9.82920 | 31029 ft | 432 kts | 155° |
| 2026-04-19 12:49 | 44.68044 | 9.87199 | 31039 ft | 433 kts | 155° |
| 2026-04-19 12:49 | 44.62842 | 9.91476 | 31051 ft | 433 kts | 155° |
| 2026-04-19 12:50 | 44.57663 | 9.95725 | 31062 ft | 433 kts | 155° |
| 2026-04-19 12:50 | 44.52444 | 9.99998 | 31071 ft | 433 kts | 155° |
| 2026-04-19 12:51 | 44.47256 | 10.04236 | 31072 ft | 433 kts | 155° |
| 2026-04-19 12:51 | 44.42021 | 10.08502 | 31081 ft | 435 kts | 155° |
| 2026-04-19 12:52 | 44.36778 | 10.12768 | 31092 ft | 435 kts | 155° |
| 2026-04-19 12:52 | 44.31559 | 10.17007 | 31095 ft | 436 kts | 155° |
| 2026-04-19 12:53 | 44.26309 | 10.21261 | 31093 ft | 435 kts | 155° |
| 2026-04-19 12:53 | 44.21061 | 10.25504 | 31098 ft | 435 kts | 155° |
| 2026-04-19 12:54 | 44.15840 | 10.29716 | 31104 ft | 436 kts | 155° |
| 2026-04-19 12:54 | 44.10586 | 10.33947 | 31115 ft | 436 kts | 155° |
| 2026-04-19 12:55 | 44.05351 | 10.38154 | 31118 ft | 436 kts | 155° |
| 2026-04-19 12:55 | 44.00084 | 10.42377 | 31124 ft | 436 kts | 155° |
| 2026-04-19 12:56 | 43.95797 | 10.45899 | 31114 ft | 437 kts | 153° |
| 2026-04-19 12:56 | 43.90546 | 10.50412 | 31108 ft | 439 kts | 152° |
| 2026-04-19 12:57 | 43.85392 | 10.54873 | 31092 ft | 439 kts | 152° |
| 2026-04-19 12:57 | 43.80180 | 10.59356 | 31082 ft | 439 kts | 153° |
| 2026-04-19 12:58 | 43.75015 | 10.63772 | 31076 ft | 439 kts | 153° |
| 2026-04-19 12:58 | 43.69796 | 10.68219 | 31074 ft | 439 kts | 153° |
| 2026-04-19 12:59 | 43.64612 | 10.72628 | 31072 ft | 439 kts | 152° |
| 2026-04-19 12:59 | 43.59386 | 10.77064 | 31069 ft | 440 kts | 153° |
| 2026-04-19 13:00 | 43.54168 | 10.81485 | 31073 ft | 440 kts | 153° |
| 2026-04-19 13:00 | 43.48971 | 10.85878 | 31071 ft | 440 kts | 153° |
| 2026-04-19 13:01 | 43.43744 | 10.90289 | 31065 ft | 440 kts | 153° |
| 2026-04-19 13:01 | 43.38532 | 10.94677 | 31065 ft | 440 kts | 153° |
| 2026-04-19 13:02 | 43.33296 | 10.99078 | 31065 ft | 440 kts | 153° |
| 2026-04-19 13:02 | 43.28088 | 11.03445 | 31065 ft | 440 kts | 153° |
| 2026-04-19 13:03 | 43.22858 | 11.07822 | 31063 ft | 439 kts | 152° |
| 2026-04-19 13:03 | 43.17630 | 11.12188 | 31065 ft | 439 kts | 152° |
| 2026-04-19 13:04 | 43.12468 | 11.16490 | 31069 ft | 440 kts | 152° |
| 2026-04-19 13:04 | 43.07256 | 11.20825 | 31066 ft | 439 kts | 152° |
| 2026-04-19 13:05 | 43.01993 | 11.25194 | 31070 ft | 438 kts | 152° |
| 2026-04-19 13:05 | 42.96772 | 11.29519 | 31068 ft | 438 kts | 152° |
| 2026-04-19 13:06 | 42.91548 | 11.33838 | 31069 ft | 438 kts | 152° |
| 2026-04-19 13:06 | 42.86355 | 11.38123 | 31067 ft | 437 kts | 152° |
| 2026-04-19 13:07 | 42.81137 | 11.42419 | 31069 ft | 437 kts | 152° |
| 2026-04-19 13:07 | 42.75922 | 11.46706 | 31065 ft | 437 kts | 152° |
| 2026-04-19 13:08 | 42.70730 | 11.50965 | 31067 ft | 437 kts | 152° |
| 2026-04-19 13:08 | 42.65520 | 11.55228 | 31070 ft | 437 kts | 152° |
| 2026-04-19 13:09 | 42.60338 | 11.59462 | 31073 ft | 437 kts | 152° |
| 2026-04-19 13:09 | 42.55127 | 11.63711 | 31082 ft | 437 kts | 152° |
| 2026-04-19 13:10 | 42.49906 | 11.67959 | 31081 ft | 437 kts | 152° |
| 2026-04-19 13:10 | 42.44685 | 11.72199 | 31076 ft | 438 kts | 152° |
| 2026-04-19 13:11 | 42.39440 | 11.76450 | 31069 ft | 438 kts | 152° |
| 2026-04-19 13:11 | 42.34232 | 11.80664 | 31075 ft | 438 kts | 152° |
| 2026-04-19 13:12 | 42.28993 | 11.84894 | 31079 ft | 438 kts | 152° |
| 2026-04-19 13:12 | 42.23755 | 11.89115 | 31076 ft | 438 kts | 152° |
| 2026-04-19 13:13 | 42.18550 | 11.93301 | 31081 ft | 438 kts | 152° |
| 2026-04-19 13:13 | 42.13314 | 11.97504 | 31145 ft | 438 kts | 152° |
| 2026-04-19 13:14 | 42.08073 | 12.01702 | 31175 ft | 438 kts | 152° |
| 2026-04-19 13:14 | 42.02820 | 12.05901 | 31199 ft | 438 kts | 152° |
| 2026-04-19 13:15 | 41.97603 | 12.10064 | 31208 ft | 438 kts | 152° |
| 2026-04-19 13:15 | 41.92336 | 12.14260 | 31209 ft | 439 kts | 152° |
| 2026-04-19 13:16 | 41.87077 | 12.18440 | 31212 ft | 439 kts | 152° |
| 2026-04-19 13:16 | 41.84447 | 12.20528 | 31078 ft | 439 kts | 152° |
| 2026-04-19 13:16 | 41.81825 | 12.22608 | 31075 ft | 439 kts | 152° |
| 2026-04-19 13:17 | 41.76551 | 12.26626 | 31075 ft | 438 kts | 154° |
| 2026-04-19 13:17 | 41.71188 | 12.30520 | 31074 ft | 438 kts | 154° |
| 2026-04-19 13:18 | 41.65828 | 12.34390 | 31101 ft | 438 kts | 154° |
| 2026-04-19 13:18 | 41.60457 | 12.38281 | 31103 ft | 438 kts | 154° |
| 2026-04-19 13:19 | 41.55109 | 12.42162 | 31100 ft | 438 kts | 154° |
| 2026-04-19 13:19 | 41.49751 | 12.46047 | 31097 ft | 438 kts | 154° |
| 2026-04-19 13:20 | 41.44424 | 12.49900 | 31094 ft | 437 kts | 154° |
| 2026-04-19 13:20 | 41.39059 | 12.53773 | 31089 ft | 437 kts | 154° |
| 2026-04-19 13:21 | 41.33701 | 12.57634 | 31087 ft | 437 kts | 154° |
| 2026-04-19 13:21 | 41.28342 | 12.61488 | 31085 ft | 437 kts | 154° |
| 2026-04-19 13:22 | 41.23018 | 12.65310 | 31085 ft | 437 kts | 154° |
| 2026-04-19 13:22 | 41.17662 | 12.69148 | 31088 ft | 437 kts | 154° |
| 2026-04-19 13:23 | 41.12301 | 12.72982 | 31085 ft | 437 kts | 154° |
| 2026-04-19 13:23 | 41.06942 | 12.76807 | 31089 ft | 437 kts | 154° |
| 2026-04-19 13:24 | 41.01597 | 12.80615 | 31091 ft | 437 kts | 154° |
| 2026-04-19 13:24 | 40.96232 | 12.84430 | 31087 ft | 437 kts | 154° |
| 2026-04-19 13:25 | 40.90866 | 12.88240 | 31086 ft | 437 kts | 154° |
| 2026-04-19 13:25 | 40.85529 | 12.92021 | 31085 ft | 437 kts | 154° |
| 2026-04-19 13:26 | 40.80160 | 12.95818 | 31086 ft | 437 kts | 154° |
| 2026-04-19 13:26 | 40.74778 | 12.99617 | 31086 ft | 437 kts | 154° |
| 2026-04-19 13:27 | 40.69409 | 13.03401 | 31085 ft | 437 kts | 154° |
| 2026-04-19 13:27 | 40.64076 | 13.07152 | 31086 ft | 437 kts | 154° |
| 2026-04-19 13:28 | 40.58721 | 13.10911 | 31087 ft | 437 kts | 154° |
| 2026-04-19 13:28 | 40.53359 | 13.14668 | 31085 ft | 437 kts | 154° |
| 2026-04-19 13:29 | 40.47970 | 13.18438 | 31085 ft | 437 kts | 154° |
| 2026-04-19 13:29 | 40.42629 | 13.22167 | 31083 ft | 436 kts | 154° |
| 2026-04-19 13:30 | 40.37261 | 13.25908 | 31083 ft | 436 kts | 154° |
| 2026-04-19 13:31 | 40.29208 | 13.31453 | 31077 ft | 436 kts | 156° |
| 2026-04-19 13:31 | 40.23706 | 13.34808 | 31081 ft | 435 kts | 157° |
| 2026-04-19 13:32 | 40.18240 | 13.38094 | 31083 ft | 435 kts | 157° |
| 2026-04-19 13:32 | 40.12730 | 13.41411 | 31085 ft | 434 kts | 157° |
| 2026-04-19 13:33 | 40.07255 | 13.44705 | 31087 ft | 434 kts | 157° |
| 2026-04-19 13:33 | 40.01761 | 13.48005 | 31082 ft | 434 kts | 157° |
| 2026-04-19 13:34 | 39.96281 | 13.51292 | 31086 ft | 434 kts | 156° |
| 2026-04-19 13:34 | 39.90797 | 13.54575 | 31089 ft | 433 kts | 156° |
| 2026-04-19 13:35 | 39.85340 | 13.57837 | 31081 ft | 433 kts | 156° |
| 2026-04-19 13:35 | 39.79850 | 13.61113 | 31087 ft | 433 kts | 156° |
| 2026-04-19 13:36 | 39.74412 | 13.64352 | 31089 ft | 432 kts | 156° |
| 2026-04-19 13:36 | 39.68944 | 13.67603 | 31088 ft | 432 kts | 156° |
| 2026-04-19 13:37 | 39.63478 | 13.70847 | 31090 ft | 431 kts | 156° |
| 2026-04-19 13:37 | 39.58023 | 13.74079 | 31092 ft | 431 kts | 156° |
| 2026-04-19 13:38 | 39.52567 | 13.77306 | 31088 ft | 430 kts | 156° |
| 2026-04-19 13:38 | 39.47148 | 13.80505 | 31089 ft | 430 kts | 156° |
| 2026-04-19 13:39 | 39.41709 | 13.83711 | 31102 ft | 429 kts | 156° |
| 2026-04-19 13:39 | 39.36257 | 13.86919 | 31099 ft | 429 kts | 156° |
| 2026-04-19 13:40 | 39.32645 | 13.89041 | 31102 ft | 429 kts | 156° |
| 2026-04-19 13:40 | 39.30740 | 13.90160 | 31108 ft | 429 kts | 156° |
| 2026-04-19 13:41 | 39.25312 | 13.93342 | 31095 ft | 428 kts | 156° |
| 2026-04-19 13:41 | 39.20784 | 13.95993 | 31104 ft | 428 kts | 156° |
| 2026-04-19 13:42 | 39.15342 | 13.99174 | 31102 ft | 428 kts | 156° |
| 2026-04-19 13:42 | 39.09937 | 14.02328 | 31104 ft | 427 kts | 156° |
| 2026-04-19 13:43 | 39.04506 | 14.05493 | 31103 ft | 427 kts | 157° |
| 2026-04-19 13:43 | 38.99083 | 14.08646 | 31103 ft | 426 kts | 157° |
| 2026-04-19 13:44 | 38.93687 | 14.11779 | 31100 ft | 426 kts | 157° |
| 2026-04-19 13:44 | 38.88297 | 14.14904 | 31098 ft | 425 kts | 157° |
| 2026-04-19 13:45 | 38.82896 | 14.18029 | 31100 ft | 425 kts | 157° |
| 2026-04-19 13:45 | 38.77522 | 14.21133 | 31103 ft | 424 kts | 157° |
| 2026-04-19 13:46 | 38.72150 | 14.24231 | 31104 ft | 424 kts | 157° |
| 2026-04-19 13:46 | 38.66759 | 14.27335 | 31099 ft | 424 kts | 157° |
| 2026-04-19 13:47 | 38.61377 | 14.30429 | 31100 ft | 424 kts | 157° |
| 2026-04-19 13:47 | 38.56000 | 14.33515 | 31103 ft | 424 kts | 157° |
| 2026-04-19 13:48 | 38.50652 | 14.36579 | 31099 ft | 423 kts | 157° |
| 2026-04-19 13:48 | 38.45277 | 14.39654 | 31086 ft | 421 kts | 157° |
| 2026-04-19 13:48 | 38.42626 | 14.41169 | 30872 ft | 416 kts | 157° |
| 2026-04-19 13:49 | 38.39960 | 14.42690 | 30467 ft | 421 kts | 157° |
| 2026-04-19 13:49 | 38.37262 | 14.44228 | 30051 ft | 424 kts | 157° |
| 2026-04-19 13:49 | 38.34602 | 14.45744 | 29576 ft | 424 kts | 157° |
| 2026-04-19 13:49 | 38.31912 | 14.47276 | 29105 ft | 423 kts | 157° |
| 2026-04-19 13:50 | 38.29229 | 14.48803 | 28641 ft | 421 kts | 157° |
| 2026-04-19 13:50 | 38.26546 | 14.50329 | 28168 ft | 418 kts | 157° |
| 2026-04-19 13:50 | 38.23891 | 14.51837 | 27717 ft | 415 kts | 157° |
| 2026-04-19 13:50 | 38.21286 | 14.53316 | 27279 ft | 413 kts | 157° |
| 2026-04-19 13:51 | 38.18653 | 14.54809 | 26856 ft | 410 kts | 156° |
| 2026-04-19 13:51 | 38.16050 | 14.56284 | 26405 ft | 407 kts | 156° |
| 2026-04-19 13:51 | 38.13499 | 14.57729 | 25989 ft | 405 kts | 156° |
| 2026-04-19 13:51 | 38.10925 | 14.59185 | 25568 ft | 402 kts | 156° |
| 2026-04-19 13:52 | 38.08360 | 14.60635 | 25156 ft | 400 kts | 156° |
| 2026-04-19 13:52 | 38.05844 | 14.62057 | 24756 ft | 398 kts | 156° |
| 2026-04-19 13:52 | 38.03320 | 14.63482 | 24349 ft | 395 kts | 156° |
| 2026-04-19 13:52 | 38.00810 | 14.64898 | 23956 ft | 393 kts | 156° |
| 2026-04-19 13:53 | 37.98318 | 14.66302 | 23546 ft | 391 kts | 156° |
| 2026-04-19 13:53 | 37.95836 | 14.67700 | 23083 ft | 388 kts | 156° |
| 2026-04-19 13:53 | 37.93347 | 14.68858 | 22623 ft | 385 kts | 166° |
| 2026-04-19 13:53 | 37.90724 | 14.69476 | 22172 ft | 382 kts | 173° |
| 2026-04-19 13:54 | 37.88084 | 14.69804 | 21764 ft | 378 kts | 180° |
| 2026-04-19 13:54 | 37.85489 | 14.69405 | 21348 ft | 372 kts | 198° |
| 2026-04-19 13:54 | 37.83156 | 14.68077 | 20941 ft | 365 kts | 215° |
| 2026-04-19 13:54 | 37.81124 | 14.66177 | 20542 ft | 361 kts | 221° |
| 2026-04-19 13:55 | 37.79187 | 14.64164 | 20141 ft | 359 kts | 222° |
| 2026-04-19 13:55 | 37.77274 | 14.62150 | 19748 ft | 356 kts | 222° |
| 2026-04-19 13:55 | 37.75397 | 14.60182 | 19337 ft | 354 kts | 222° |
| 2026-04-19 13:55 | 37.73513 | 14.58209 | 18875 ft | 351 kts | 222° |
| 2026-04-19 13:56 | 37.71636 | 14.56244 | 18403 ft | 348 kts | 222° |
| 2026-04-19 13:56 | 37.69776 | 14.54297 | 17873 ft | 345 kts | 222° |
| 2026-04-19 13:56 | 37.67938 | 14.52373 | 17334 ft | 341 kts | 222° |
| 2026-04-19 13:56 | 37.66122 | 14.50466 | 16824 ft | 339 kts | 222° |
| 2026-04-19 13:57 | 37.64337 | 14.48583 | 16311 ft | 337 kts | 222° |
| 2026-04-19 13:57 | 37.62540 | 14.46681 | 15800 ft | 335 kts | 222° |
| 2026-04-19 13:57 | 37.60760 | 14.44805 | 15311 ft | 333 kts | 220° |
| 2026-04-19 13:57 | 37.58718 | 14.43442 | 14811 ft | 333 kts | 198° |
| 2026-04-19 13:58 | 37.56426 | 14.42985 | 14343 ft | 333 kts | 185° |
| 2026-04-19 13:58 | 37.54154 | 14.42808 | 13872 ft | 332 kts | 184° |
| 2026-04-19 13:58 | 37.51850 | 14.42655 | 13349 ft | 329 kts | 184° |
| 2026-04-19 13:58 | 37.49598 | 14.42507 | 12837 ft | 326 kts | 184° |
| 2026-04-19 13:59 | 37.47294 | 14.42354 | 12314 ft | 323 kts | 184° |
| 2026-04-19 13:59 | 37.45084 | 14.42206 | 11820 ft | 320 kts | 184° |
| 2026-04-19 13:59 | 37.42861 | 14.42057 | 11327 ft | 316 kts | 184° |
| 2026-04-19 13:59 | 37.40677 | 14.41912 | 10835 ft | 311 kts | 184° |
| 2026-04-19 14:00 | 37.38545 | 14.42151 | 10359 ft | 308 kts | 163° |
| 2026-04-19 14:00 | 37.36703 | 14.43416 | 9868 ft | 305 kts | 138° |
| 2026-04-19 14:00 | 37.35456 | 14.45518 | 9361 ft | 300 kts | 112° |
| 2026-04-19 14:00 | 37.35045 | 14.48051 | 8827 ft | 294 kts | 86° |
| 2026-04-19 14:01 | 37.35530 | 14.50497 | 8317 ft | 287 kts | 62° |
| 2026-04-19 14:01 | 37.36538 | 14.52632 | 7813 ft | 282 kts | 54° |
| 2026-04-19 14:01 | 37.37633 | 14.54669 | 7326 ft | 280 kts | 54° |
| 2026-04-19 14:01 | 37.38728 | 14.56672 | 6845 ft | 277 kts | 54° |
| 2026-04-19 14:02 | 37.39818 | 14.58677 | 6343 ft | 276 kts | 55° |
| 2026-04-19 14:02 | 37.40629 | 14.60829 | 5859 ft | 276 kts | 70° |
| 2026-04-19 14:02 | 37.41164 | 14.63145 | 5347 ft | 275 kts | 73° |
| 2026-04-19 14:02 | 37.41653 | 14.65480 | 4853 ft | 274 kts | 74° |
| 2026-04-19 14:03 | 37.42136 | 14.67785 | 4358 ft | 273 kts | 74° |
| 2026-04-19 14:03 | 37.42621 | 14.70074 | 3866 ft | 272 kts | 74° |
| 2026-04-19 14:03 | 37.43117 | 14.72366 | 3363 ft | 270 kts | 74° |
| 2026-04-19 14:03 | 37.43459 | 14.74678 | 2864 ft | 268 kts | 91° |
| 2026-04-19 14:04 | 37.43033 | 14.76929 | 2378 ft | 264 kts | 113° |
| 2026-04-19 14:04 | 37.42221 | 14.78981 | 2063 ft | 259 kts | 118° |
| 2026-04-19 14:04 | 37.41364 | 14.80959 | 2000 ft | 256 kts | 119° |
| 2026-04-19 14:04 | 37.40573 | 14.82916 | 2001 ft | 249 kts | 112° |
| 2026-04-19 14:05 | 37.40148 | 14.84924 | 1794 ft | 228 kts | 96° |
| 2026-04-19 14:05 | 37.40274 | 14.86824 | 1421 ft | 206 kts | 79° |
| 2026-04-19 14:05 | 37.40529 | 14.88503 | 1013 ft | 179 kts | 87° |
| 2026-04-19 14:05 | 37.40437 | 14.89889 | 562 ft | 144 kts | 96° |
| 2026-04-19 14:06 | 37.40299 | 14.91049 | 120 ft | 122 kts | 94° |
| 2026-04-19 14:06 | 37.40200 | 14.91899 | 93 ft | 71 kts | 100° |
| 2026-04-19 14:06 | 37.40161 | 14.92300 | 92 ft | 27 kts | 97° |
| 2026-04-19 14:06 | 37.40147 | 14.92432 | 88 ft | 10 kts | 98° |
| 2026-04-19 14:07 | 37.40136 | 14.92523 | 89 ft | 11 kts | 99° |
| 2026-04-19 14:07 | 37.40124 | 14.92613 | 90 ft | 10 kts | 100° |
| 2026-04-19 14:07 | 37.40145 | 14.92680 | 90 ft | 8 kts | 29° |
| 2026-04-19 14:07 | 37.40205 | 14.92696 | 87 ft | 10 kts | 11° |
| 2026-04-19 14:08 | 37.40285 | 14.92710 | 88 ft | 14 kts | 8° |
| 2026-04-19 14:08 | 37.40389 | 14.92701 | 89 ft | 15 kts | 345° |
| 2026-04-19 14:08 | 37.40457 | 14.92722 | 89 ft | 10 kts | 60° |
| 2026-04-19 14:08 | 37.40487 | 14.92808 | 87 ft | 12 kts | 68° |
| 2026-04-19 14:09 | 37.40520 | 14.92911 | 89 ft | 14 kts | 68° |
| 2026-04-19 14:09 | 37.40550 | 14.93009 | 88 ft | 5 kts | 47° |
| 2026-04-19 14:09 | 37.40588 | 14.93024 | 84 ft | 8 kts | 4° |